createdAt,value
2023-03-11T00:00:36.878Z,4.45
2023-03-11T00:03:24.884Z,3.15
2023-03-11T00:06:13.311Z,1.98
2023-03-11T00:09:00.539Z,1.77
2023-03-11T00:11:47.743Z,2.58
2023-03-11T00:14:35.252Z,2.67
2023-03-11T00:17:22.458Z,1.90
2023-03-11T00:20:25.120Z,2.17
2023-03-11T00:23:15.911Z,2.95
2023-03-11T00:26:03.406Z,2.60
2023-03-11T00:28:50.779Z,2.13
2023-03-11T00:31:39.273Z,2.72
2023-03-11T00:34:28.777Z,2.30
2023-03-11T00:37:20.541Z,4.40
2023-03-11T00:40:12.882Z,1.83
2023-03-11T00:43:02.170Z,4.95
2023-03-11T00:45:49.475Z,2.35
2023-03-11T00:48:38.930Z,4.00
2023-03-11T00:51:26.416Z,1.80
2023-03-11T00:54:13.990Z,2.97
2023-03-11T00:57:02.606Z,3.33
2023-03-11T00:59:49.832Z,5.13
2023-03-11T01:02:39.554Z,2.63
2023-03-11T01:05:30.331Z,4.88
2023-03-11T01:08:17.903Z,3.85
2023-03-11T01:11:06.781Z,3.28
2023-03-11T01:13:53.916Z,2.75
2023-03-11T01:16:41.850Z,3.15
2023-03-11T01:19:29.863Z,4.80
2023-03-11T01:22:18.920Z,2.38
2023-03-11T01:25:06.357Z,4.30
2023-03-11T01:27:53.965Z,4.15
2023-03-11T01:30:44.604Z,2.95
2023-03-11T01:37:20.350Z,6.07
2023-03-11T01:40:09.339Z,2.60
2023-03-11T01:42:57.474Z,5.93
2023-03-11T01:45:50.809Z,3.17
2023-03-11T01:48:40.477Z,6.03
2023-03-11T01:51:36.034Z,5.85
2023-03-11T01:54:23.321Z,3.38
2023-03-11T01:57:13.920Z,2.85
2023-03-11T02:00:05.428Z,3.97
2023-03-11T02:02:54.348Z,3.20
2023-03-11T02:05:44.699Z,2.47
2023-03-11T02:08:34.335Z,4.20
2023-03-11T02:11:29.398Z,4.47
2023-03-11T02:14:17.291Z,2.40
2023-03-11T02:17:04.556Z,2.78
2023-03-11T02:20:06.591Z,2.60
2023-03-11T02:23:03.210Z,4.97
2023-03-11T02:25:50.373Z,6.45
2023-03-11T02:28:42.769Z,4.00
2023-03-11T02:31:31.491Z,1.98
2023-03-11T02:34:31.947Z,4.57
2023-03-11T02:37:22.508Z,5.70
2023-03-11T02:40:25.114Z,4.20
2023-03-11T02:43:21.860Z,3.50
2023-03-11T02:46:11.713Z,8.77
2023-03-11T02:49:00.588Z,3.50
2023-03-11T02:51:49.343Z,3.65
2023-03-11T02:54:36.899Z,4.40
2023-03-11T02:57:23.981Z,5.57
2023-03-11T03:00:15.199Z,4.15
2023-03-11T03:03:03.775Z,5.85
2023-03-11T03:05:53.018Z,4.35
2023-03-11T03:08:40.734Z,3.85
2023-03-11T03:11:28.087Z,7.20
2023-03-11T03:14:16.513Z,4.28
2023-03-11T03:17:04.267Z,6.85
2023-03-11T03:19:55.127Z,8.27
2023-03-11T03:22:46.810Z,6.60
2023-03-11T03:25:34.229Z,5.13
2023-03-11T03:28:21.702Z,9.43
2023-03-11T03:31:10.497Z,2.78
2023-03-11T03:34:00.238Z,5.47
2023-03-11T03:36:47.532Z,7.97
2023-03-11T03:39:34.866Z,5.70
2023-03-11T03:42:22.834Z,7.82
2023-03-11T03:45:10.690Z,5.70
2023-03-11T03:47:57.942Z,2.60
2023-03-11T03:50:47.563Z,3.70
2023-03-11T03:53:38.247Z,2.70
2023-03-11T03:56:26.040Z,7.20
2023-03-11T03:59:13.339Z,3.83
2023-03-11T04:02:03.046Z,6.03
2023-03-11T04:04:51.764Z,4.70
2023-03-11T04:07:38.904Z,5.88
2023-03-11T04:10:26.008Z,4.82
2023-03-11T04:13:15.631Z,7.53
2023-03-11T04:16:14.574Z,6.18
2023-03-11T04:19:02.297Z,3.53
2023-03-11T04:21:52.007Z,6.25
2023-03-11T04:24:39.215Z,5.10
2023-03-11T04:27:27.023Z,3.33
2023-03-11T04:30:14.422Z,6.88
2023-03-11T04:33:01.626Z,11.52
2023-03-11T04:35:48.796Z,7.25
2023-03-11T04:38:37.770Z,2.65
2023-03-11T04:41:25.003Z,7.00
2023-03-11T04:44:12.298Z,6.72
2023-03-11T04:46:59.467Z,6.43
2023-03-11T04:49:46.904Z,3.63
2023-03-11T04:52:34.104Z,7.30
2023-03-11T04:55:21.237Z,2.90
2023-03-11T04:58:11.051Z,4.32
2023-03-11T05:01:50.679Z,6.88
2023-03-11T05:08:25.899Z,4.75
2023-03-11T05:14:16.855Z,11.82
2023-03-11T05:17:04.197Z,12.25
2023-03-11T05:19:53.780Z,6.78
2023-03-11T05:22:41.085Z,4.68
2023-03-11T05:25:28.710Z,5.95
2023-03-11T05:28:15.956Z,5.68
2023-03-11T05:31:03.722Z,7.97
2023-03-11T05:33:52.988Z,6.35
2023-03-11T05:36:40.189Z,6.20
2023-03-11T05:39:27.857Z,6.60
2023-03-11T05:42:17.246Z,3.67
2023-03-11T05:45:04.943Z,6.18
2023-03-11T05:47:52.908Z,11.32
2023-03-11T05:50:40.040Z,4.07
2023-03-11T05:53:27.251Z,6.20
2023-03-11T05:56:22.649Z,4.13
2023-03-11T05:59:16.812Z,6.15
2023-03-11T06:02:04.347Z,11.48
2023-03-11T06:04:51.686Z,5.22
2023-03-11T06:07:38.995Z,2.88
2023-03-11T06:10:29.131Z,5.30
2023-03-11T06:13:16.801Z,5.90
2023-03-11T06:16:05.083Z,6.63
2023-03-11T06:18:52.397Z,6.93
2023-03-11T06:21:39.934Z,9.35
2023-03-11T06:24:27.349Z,12.00
2023-03-11T06:27:15.097Z,7.63
2023-03-11T06:30:05.010Z,7.75
2023-03-11T06:32:55.279Z,5.88
2023-03-11T06:35:42.730Z,3.95
2023-03-11T06:38:30.980Z,5.93
2023-03-11T06:41:24.021Z,10.40
2023-03-11T06:44:11.524Z,14.65
2023-03-11T06:46:59.241Z,13.35
2023-03-11T06:49:46.591Z,4.15
2023-03-11T06:52:33.823Z,8.65
2023-03-11T06:55:21.362Z,10.05
2023-03-11T06:58:08.606Z,6.70
2023-03-11T07:00:59.929Z,6.47
2023-03-11T07:03:50.965Z,6.85
2023-03-11T07:06:40.275Z,9.35
2023-03-11T07:09:28.573Z,9.43
2023-03-11T07:12:16.058Z,4.00
2023-03-11T07:15:05.290Z,7.38
2023-03-11T07:17:52.889Z,5.78
2023-03-11T07:20:40.555Z,7.05
2023-03-11T07:23:32.361Z,7.88
2023-03-11T07:29:34.431Z,5.15
2023-03-11T07:32:23.776Z,8.73
2023-03-11T07:35:15.335Z,7.13
2023-03-11T07:38:02.545Z,4.47
2023-03-11T07:41:02.241Z,6.03
2023-03-11T07:43:49.392Z,10.15
2023-03-11T07:46:36.602Z,7.70
2023-03-11T07:49:28.643Z,5.70
2023-03-11T07:52:15.876Z,8.23
2023-03-11T07:55:03.158Z,9.07
2023-03-11T07:57:52.183Z,7.18
2023-03-11T08:00:39.468Z,19.40
2023-03-11T08:03:26.884Z,9.02
2023-03-11T08:06:18.751Z,4.78
2023-03-11T08:09:09.034Z,8.73
2023-03-11T08:11:56.208Z,7.22
2023-03-11T08:14:43.961Z,6.00
2023-03-11T08:17:31.092Z,9.55
2023-03-11T08:20:18.418Z,4.15
2023-03-11T08:23:06.283Z,7.30
2023-03-11T08:25:53.458Z,3.10
2023-03-11T08:28:40.965Z,6.20
2023-03-11T08:31:34.814Z,5.75
2023-03-11T08:34:24.376Z,3.95
2023-03-11T08:37:11.655Z,5.43
2023-03-11T08:40:00.078Z,4.40
2023-03-11T08:42:47.563Z,6.03
2023-03-11T08:45:39.402Z,8.57
2023-03-11T08:48:27.012Z,5.10
2023-03-11T08:51:14.457Z,3.45
2023-03-11T08:54:03.926Z,5.25
2023-03-11T08:56:51.091Z,3.90
2023-03-11T08:59:38.334Z,5.63
2023-03-11T09:02:26.449Z,6.40
2023-03-11T09:05:13.934Z,2.55
2023-03-11T09:08:05.734Z,7.28
2023-03-11T09:10:53.276Z,7.05
2023-03-11T09:13:41.965Z,6.68
2023-03-11T09:16:33.741Z,6.72
2023-03-11T09:19:21.014Z,3.83
2023-03-11T09:22:08.377Z,3.28
2023-03-11T09:24:56.849Z,3.85
2023-03-11T09:27:47.211Z,4.88
2023-03-11T09:30:35.805Z,2.88
2023-03-11T09:33:23.516Z,2.42
2023-03-11T09:36:21.505Z,2.35
2023-03-11T09:39:09.172Z,2.65
2023-03-11T09:41:59.395Z,3.60
2023-03-11T09:45:04.663Z,2.92
2023-03-11T09:48:23.478Z,3.45
2023-03-11T09:51:22.966Z,4.40
2023-03-11T09:54:12.099Z,2.13
2023-03-11T09:57:00.668Z,4.28
2023-03-11T09:59:51.294Z,3.17
2023-03-11T10:02:40.069Z,1.75
2023-03-11T10:05:29.741Z,2.50
2023-03-11T10:08:40.800Z,4.97
2023-03-11T10:11:45.451Z,2.75
2023-03-11T10:14:42.890Z,2.78
2023-03-11T10:17:41.813Z,3.20
2023-03-11T10:20:53.168Z,4.68
2023-03-11T10:24:03.277Z,3.45
2023-03-11T10:26:57.051Z,6.03
2023-03-11T10:30:25.257Z,2.85
2023-03-11T10:33:56.620Z,3.17
2023-03-11T10:37:04.460Z,2.10
2023-03-11T10:39:54.599Z,2.03
2023-03-11T10:42:44.196Z,4.68
2023-03-11T10:45:41.587Z,4.45
2023-03-11T10:48:31.334Z,2.80
2023-03-11T10:51:24.131Z,3.08
2023-03-11T10:54:46.415Z,2.70
2023-03-11T10:57:36.234Z,2.93
2023-03-11T11:00:30.529Z,3.10
2023-03-11T11:03:23.594Z,1.80
2023-03-11T11:09:16.925Z,4.93
2023-03-11T11:12:17.668Z,6.95
2023-03-11T11:15:05.788Z,5.55
2023-03-11T11:17:55.643Z,1.42
2023-03-11T11:20:56.236Z,4.78
2023-03-11T11:24:02.997Z,2.30
2023-03-11T11:27:24.730Z,1.30
2023-03-11T11:30:17.646Z,2.42
2023-03-11T11:33:26.073Z,2.80
2023-03-11T11:36:16.429Z,5.25
2023-03-11T11:39:16.606Z,2.97
2023-03-11T11:42:04.400Z,3.85
2023-03-11T11:45:20.699Z,2.58
2023-03-11T11:48:34.146Z,2.55
2023-03-11T11:51:28.275Z,4.13
2023-03-11T11:54:33.970Z,1.90
2023-03-11T11:57:24.348Z,2.60
2023-03-11T12:00:42.335Z,3.88
2023-03-11T12:03:51.074Z,2.65
2023-03-11T12:07:02.209Z,3.13
2023-03-11T12:10:23.358Z,4.75
2023-03-11T12:13:35.090Z,2.45
2023-03-11T12:16:47.988Z,2.13
2023-03-11T12:19:39.809Z,2.65
2023-03-11T12:22:27.030Z,1.20
2023-03-11T12:25:47.177Z,4.50
2023-03-11T12:28:45.572Z,3.63
2023-03-11T12:31:39.020Z,3.30
2023-03-11T12:34:29.698Z,4.10
2023-03-11T12:37:24.214Z,3.38
2023-03-11T12:40:42.485Z,5.60
2023-03-11T12:43:33.988Z,3.17
2023-03-11T12:46:21.933Z,2.63
2023-03-11T12:49:18.389Z,2.83
2023-03-11T12:52:14.363Z,4.13
2023-03-11T12:55:01.575Z,1.70
2023-03-11T12:57:48.735Z,2.22
2023-03-11T13:01:19.641Z,4.32
2023-03-11T13:04:21.195Z,1.90
2023-03-11T13:07:35.879Z,3.03
2023-03-11T13:10:29.038Z,3.72
2023-03-11T13:13:25.171Z,4.10
2023-03-11T13:16:17.286Z,3.42
2023-03-11T13:19:27.259Z,2.88
2023-03-11T13:23:03.814Z,5.70
2023-03-11T13:25:54.059Z,2.78
2023-03-11T13:29:14.200Z,3.35
2023-03-11T13:32:32.754Z,3.97
2023-03-11T13:35:56.170Z,4.80
2023-03-11T13:39:20.322Z,4.47
2023-03-11T13:42:29.458Z,4.55
2023-03-11T13:45:35.308Z,1.92
2023-03-11T13:48:49.458Z,5.30
2023-03-11T13:51:43.675Z,3.90
2023-03-11T13:54:50.524Z,2.20
2023-03-11T13:57:38.350Z,2.47
2023-03-11T14:00:29.118Z,3.15
2023-03-11T14:03:22.879Z,4.13
2023-03-11T14:06:18.023Z,5.88
2023-03-11T14:09:18.488Z,4.32
2023-03-11T14:12:07.894Z,4.50
2023-03-11T14:15:07.286Z,4.18
2023-03-11T14:18:14.831Z,2.45
2023-03-11T14:21:06.574Z,4.60
2023-03-11T14:23:56.777Z,1.70
2023-03-11T14:26:45.011Z,2.80
2023-03-11T14:29:43.402Z,2.67
2023-03-11T14:32:35.904Z,2.63
2023-03-11T14:35:23.368Z,3.00
2023-03-11T14:38:27.334Z,2.63
2023-03-11T14:41:15.840Z,3.58
2023-03-11T14:44:03.689Z,2.63
2023-03-11T14:46:54.786Z,3.08
2023-03-11T14:49:42.838Z,2.95
2023-03-11T14:52:44.380Z,3.08
2023-03-11T14:55:51.017Z,4.90
2023-03-11T14:58:42.301Z,5.25
2023-03-11T15:01:34.442Z,4.60
2023-03-11T15:04:35.669Z,2.35
2023-03-11T15:07:27.948Z,7.93
2023-03-11T15:10:17.757Z,4.47
2023-03-11T15:13:26.508Z,4.85
2023-03-11T15:16:31.773Z,3.17
2023-03-11T15:19:28.190Z,3.80
2023-03-11T15:22:26.261Z,2.40
2023-03-11T15:25:19.307Z,67.65
2023-03-11T15:28:29.883Z,9.23
2023-03-11T15:31:20.197Z,6.68
2023-03-11T15:34:19.418Z,3.40
2023-03-11T15:37:26.524Z,6.63
2023-03-11T15:40:19.867Z,4.63
2023-03-11T15:43:18.307Z,9.52
2023-03-11T15:46:07.663Z,5.82
2023-03-11T15:48:55.148Z,6.15
2023-03-11T15:51:42.428Z,4.68
2023-03-11T15:54:29.921Z,3.92
2023-03-11T15:57:38.615Z,3.50
2023-03-11T16:00:26.962Z,5.32
2023-03-11T16:03:14.457Z,5.90
2023-03-11T16:06:01.982Z,7.25
2023-03-11T16:08:49.833Z,9.25
2023-03-11T16:11:37.616Z,3.95
2023-03-11T16:14:26.187Z,4.20
2023-03-11T16:17:18.768Z,2.70
2023-03-11T16:20:06.474Z,5.22
2023-03-11T16:22:56.375Z,5.38
2023-03-11T16:25:44.577Z,4.32
2023-03-11T16:28:31.896Z,7.00
2023-03-11T16:31:19.168Z,5.22
2023-03-11T16:34:07.684Z,6.32
2023-03-11T16:36:55.048Z,5.70
2023-03-11T16:39:42.457Z,8.13
2023-03-11T16:42:29.640Z,6.60
2023-03-11T16:45:18.180Z,4.32
2023-03-11T16:48:06.022Z,6.18
2023-03-11T16:50:53.175Z,5.13
2023-03-11T16:53:42.890Z,5.85
2023-03-11T16:56:30.221Z,3.30
2023-03-11T16:59:17.473Z,7.65
2023-03-11T17:02:04.992Z,5.10
2023-03-11T17:04:55.186Z,5.53
2023-03-11T17:07:42.785Z,4.88
2023-03-11T17:10:38.502Z,7.05
2023-03-11T17:13:28.470Z,5.93
2023-03-11T17:16:15.923Z,6.20
2023-03-11T17:19:05.654Z,5.93
2023-03-11T17:21:53.117Z,5.10
2023-03-11T17:24:40.749Z,6.90
2023-03-11T17:27:32.455Z,7.55
2023-03-11T17:30:35.669Z,9.48
2023-03-11T17:33:23.839Z,4.20
2023-03-11T17:36:16.035Z,8.98
2023-03-11T17:39:03.486Z,6.18
2023-03-11T17:41:52.094Z,3.80
2023-03-11T17:44:50.890Z,8.10
2023-03-11T17:47:38.949Z,6.65
2023-03-11T17:50:26.562Z,3.25
2023-03-11T17:53:13.794Z,5.07
2023-03-11T17:56:01.015Z,6.68
2023-03-11T17:58:49.054Z,7.20
2023-03-11T18:01:38.811Z,3.40
2023-03-11T18:04:26.012Z,6.93
2023-03-11T18:07:13.542Z,11.88
2023-03-11T18:10:00.741Z,9.15
2023-03-11T18:12:53.825Z,8.20
2023-03-11T18:15:41.094Z,4.18
2023-03-11T18:18:31.164Z,8.43
2023-03-11T18:21:21.487Z,8.13
2023-03-11T18:24:08.816Z,11.95
2023-03-11T18:26:56.831Z,9.85
2023-03-11T18:29:44.083Z,9.63
2023-03-11T18:32:31.498Z,10.77
2023-03-11T18:35:19.006Z,11.25
2023-03-11T18:38:06.538Z,6.80
2023-03-11T18:40:57.924Z,5.38
2023-03-11T18:43:51.401Z,5.40
2023-03-11T18:46:38.930Z,4.03
2023-03-11T18:49:26.527Z,4.88
2023-03-11T18:52:13.738Z,6.07
2023-03-11T18:55:03.549Z,9.73
2023-03-11T18:57:50.953Z,6.45
2023-03-11T19:00:38.316Z,7.82
2023-03-11T19:03:25.776Z,8.45
2023-03-11T19:06:13.724Z,7.10
2023-03-11T19:09:01.850Z,8.30
2023-03-11T19:11:49.176Z,6.40
2023-03-11T19:14:36.452Z,5.50
2023-03-11T19:17:26.106Z,6.63
2023-03-11T19:20:14.275Z,11.70
2023-03-11T19:23:02.913Z,10.90
2023-03-11T19:26:02.538Z,15.55
2023-03-11T19:28:50.506Z,22.50
2023-03-11T19:31:37.972Z,13.05
2023-03-11T19:34:27.186Z,22.63
2023-03-11T19:37:14.906Z,13.02
2023-03-11T19:40:02.435Z,14.05
2023-03-11T19:42:52.973Z,18.27
2023-03-11T19:45:50.766Z,12.75
2023-03-11T19:48:38.201Z,9.43
2023-03-11T19:51:30.451Z,7.22
2023-03-11T19:54:20.715Z,12.57
2023-03-11T19:57:08.686Z,8.35
2023-03-11T19:59:56.422Z,3.58
2023-03-11T20:02:44.045Z,8.15
2023-03-11T20:05:35.390Z,11.68
2023-03-11T20:08:25.513Z,12.95
2023-03-11T20:11:19.123Z,22.58
2023-03-11T20:14:07.112Z,15.02
2023-03-11T20:16:54.517Z,20.10
2023-03-11T20:19:45.046Z,18.15
2023-03-11T20:22:35.203Z,16.40
2023-03-11T20:25:23.113Z,20.65
2023-03-11T20:28:13.883Z,26.85
2023-03-11T20:31:23.722Z,23.95
2023-03-11T20:34:12.155Z,18.42
2023-03-11T20:36:59.573Z,18.95
2023-03-11T20:39:47.296Z,18.08
2023-03-11T20:42:34.599Z,18.25
2023-03-11T20:45:22.403Z,20.95
2023-03-11T20:48:12.335Z,24.73
2023-03-11T20:51:04.625Z,31.20
2023-03-11T20:53:55.310Z,25.75
2023-03-11T20:56:45.244Z,26.98
2023-03-11T20:59:32.796Z,26.35
2023-03-11T21:02:23.284Z,53.08
2023-03-11T21:05:12.608Z,57.10
2023-03-11T21:07:59.849Z,53.60
2023-03-11T21:10:47.327Z,51.42
2023-03-11T21:13:37.116Z,35.55
2023-03-11T21:16:28.226Z,25.15
2023-03-11T21:19:18.926Z,20.08
2023-03-11T21:22:06.997Z,21.40
2023-03-11T21:24:55.272Z,18.13
2023-03-11T21:27:42.632Z,15.57
2023-03-11T21:30:29.822Z,18.45
2023-03-11T21:33:20.277Z,20.00
2023-03-11T21:36:09.639Z,21.05
2023-03-11T21:38:57.216Z,19.75
2023-03-11T21:41:44.455Z,21.38
2023-03-11T21:44:31.836Z,21.50
2023-03-11T21:47:19.645Z,24.52
2023-03-11T21:50:07.502Z,27.30
2023-03-11T21:52:55.705Z,37.03
2023-03-11T21:55:43.551Z,21.77
2023-03-11T21:58:34.124Z,23.98
2023-03-11T22:01:22.392Z,24.20
2023-03-11T22:04:12.417Z,24.17
2023-03-11T22:07:02.455Z,20.33
2023-03-11T22:09:49.560Z,23.27
2023-03-11T22:12:37.894Z,26.13
2023-03-11T22:15:25.561Z,17.45
2023-03-11T22:18:12.865Z,15.60
2023-03-11T22:21:04.020Z,12.15
2023-03-11T22:23:51.418Z,16.83
2023-03-11T22:26:38.621Z,13.48
2023-03-11T22:29:26.066Z,21.45
2023-03-11T22:32:13.418Z,24.15
2023-03-11T22:35:02.822Z,22.02
2023-03-11T22:37:52.277Z,29.02
2023-03-11T22:40:39.516Z,24.52
2023-03-11T22:43:27.313Z,27.55
2023-03-11T22:46:15.175Z,24.42
2023-03-11T22:49:02.437Z,25.85
2023-03-11T22:51:49.734Z,22.85
2023-03-11T22:54:37.571Z,26.02
2023-03-11T22:57:24.761Z,23.67
2023-03-11T23:00:23.255Z,27.65
2023-03-11T23:03:11.854Z,23.50
2023-03-11T23:06:00.577Z,22.17
2023-03-11T23:08:48.585Z,20.65
2023-03-11T23:11:38.035Z,15.88
2023-03-11T23:14:37.845Z,16.35
2023-03-11T23:17:31.218Z,13.35
2023-03-11T23:20:18.518Z,17.98
2023-03-11T23:23:05.917Z,16.88
2023-03-11T23:25:58.632Z,20.08
2023-03-11T23:28:47.215Z,17.38
2023-03-11T23:31:36.634Z,16.27
2023-03-11T23:34:25.930Z,22.00
2023-03-11T23:37:13.147Z,12.73
2023-03-11T23:40:00.530Z,19.52
2023-03-11T23:42:47.754Z,20.42
2023-03-11T23:45:35.064Z,24.15
2023-03-11T23:48:22.229Z,20.05
2023-03-11T23:51:12.091Z,20.83
2023-03-11T23:53:59.502Z,21.13
2023-03-11T23:56:47.122Z,26.27
2023-03-11T23:59:34.337Z,21.65
